createdAt,value
2022-10-11T00:00:42.098Z,100.00
2022-10-11T00:05:32.674Z,100.00
2022-10-11T00:10:27.808Z,100.00
2022-10-11T00:15:19.762Z,100.00
2022-10-11T00:20:09.861Z,100.00
2022-10-11T00:24:59.299Z,100.00
2022-10-11T00:29:53.337Z,100.00
2022-10-11T00:34:42.813Z,100.00
2022-10-11T00:39:32.513Z,100.00
2022-10-11T00:44:23.306Z,100.00
2022-10-11T00:49:20.268Z,100.00
2022-10-11T00:54:10.724Z,100.00
2022-10-11T00:59:01.648Z,100.00
2022-10-11T01:03:51.113Z,100.00
2022-10-11T01:08:43.377Z,100.00
2022-10-11T01:13:37.928Z,100.00
2022-10-11T01:18:30.983Z,100.00
2022-10-11T01:23:35.404Z,100.00
2022-10-11T01:28:33.910Z,100.00
2022-10-11T01:33:30.148Z,100.00
2022-10-11T01:38:22.292Z,100.00
2022-10-11T01:43:13.211Z,100.00
2022-10-11T01:48:08.043Z,100.00
2022-10-11T01:53:03.280Z,100.00
2022-10-11T01:58:04.075Z,100.00
2022-10-11T02:02:59.567Z,100.00
2022-10-11T02:07:55.226Z,100.00
2022-10-11T02:12:50.491Z,100.00
2022-10-11T02:17:43.346Z,100.00
2022-10-11T02:22:34.750Z,100.00
2022-10-11T02:27:25.866Z,100.00
2022-10-11T02:32:19.448Z,100.00
2022-10-11T02:37:12.236Z,100.00
2022-10-11T02:42:06.133Z,100.00
2022-10-11T02:46:56.327Z,100.00
2022-10-11T02:51:48.339Z,100.00
2022-10-11T02:56:37.749Z,100.00
2022-10-11T03:01:27.161Z,100.00
2022-10-11T03:06:16.636Z,100.00
2022-10-11T03:11:08.833Z,100.00
2022-10-11T03:16:03.381Z,100.00
2022-10-11T03:20:53.200Z,100.00
2022-10-11T03:25:42.638Z,100.00
2022-10-11T03:30:34.944Z,100.00
2022-10-11T03:35:24.419Z,100.00
2022-10-11T03:40:16.071Z,100.00
2022-10-11T03:45:10.057Z,100.00
2022-10-11T03:50:02.099Z,100.00
2022-10-11T03:54:53.684Z,100.00
2022-10-11T03:59:43.063Z,100.00
2022-10-11T04:04:32.455Z,100.00
2022-10-11T04:09:28.068Z,100.00
2022-10-11T04:14:17.524Z,100.00
2022-10-11T04:19:06.993Z,100.00
2022-10-11T04:23:57.071Z,100.00
2022-10-11T04:28:49.528Z,100.00
2022-10-11T04:33:40.535Z,100.00
2022-10-11T04:38:29.964Z,100.00
2022-10-11T04:43:21.825Z,100.00
2022-10-11T04:48:14.151Z,100.00
2022-10-11T04:53:06.174Z,100.00
2022-10-11T04:57:55.796Z,100.00
2022-10-11T05:02:45.234Z,100.00
2022-10-11T05:07:37.696Z,100.00
2022-10-11T05:12:28.136Z,100.00
2022-10-11T05:17:19.649Z,100.00
2022-10-11T05:22:09.077Z,100.00
2022-10-11T05:27:03.477Z,100.00
2022-10-11T05:31:53.220Z,100.00
2022-10-11T05:36:42.687Z,100.00
2022-10-11T05:41:32.199Z,100.00
2022-10-11T05:46:25.357Z,100.00
2022-10-11T05:51:15.149Z,100.00
2022-10-11T05:56:05.169Z,100.00
2022-10-11T06:00:56.979Z,100.00
2022-10-11T06:05:52.131Z,100.00
2022-10-11T06:10:44.989Z,100.00
2022-10-11T06:15:35.127Z,100.00
2022-10-11T06:20:24.898Z,100.00
2022-10-11T06:25:17.380Z,100.00
2022-10-11T06:30:10.652Z,100.00
2022-10-11T06:35:01.602Z,100.00
2022-10-11T06:39:52.257Z,100.00
2022-10-11T06:44:44.668Z,100.00
2022-10-11T06:49:34.565Z,100.00
2022-10-11T06:54:26.074Z,100.00
2022-10-11T06:59:16.040Z,100.00
2022-10-11T07:04:10.969Z,100.00
2022-10-11T07:09:04.316Z,100.00
2022-10-11T07:13:54.784Z,100.00
2022-10-11T07:18:44.191Z,100.00
2022-10-11T07:23:37.352Z,100.00
2022-10-11T07:28:30.628Z,100.00
2022-10-11T07:33:20.656Z,100.00
2022-10-11T07:38:12.533Z,100.00
2022-10-11T07:43:04.834Z,100.00
2022-10-11T07:47:57.854Z,100.00
2022-10-11T07:52:49.338Z,100.00
2022-10-11T07:57:39.785Z,100.00
2022-10-11T08:02:34.012Z,100.00
2022-10-11T08:07:23.470Z,100.00
2022-10-11T08:12:13.091Z,100.00
2022-10-11T08:17:02.630Z,100.00
2022-10-11T08:21:54.955Z,100.00
2022-10-11T08:26:44.652Z,100.00
2022-10-11T08:31:37.155Z,100.00
2022-10-11T08:36:26.685Z,100.00
2022-10-11T08:41:27.343Z,100.00
2022-10-11T08:46:20.244Z,100.00
2022-10-11T08:51:16.663Z,100.00
2022-10-11T08:56:15.924Z,100.00
2022-10-11T09:01:09.828Z,100.00
2022-10-11T09:06:10.066Z,100.00
2022-10-11T09:11:02.451Z,100.00
2022-10-11T09:15:57.068Z,100.00
2022-10-11T09:21:16.722Z,100.00
2022-10-11T09:26:09.351Z,100.00
2022-10-11T09:31:02.909Z,100.00
2022-10-11T09:35:55.530Z,100.00
2022-10-11T09:40:54.305Z,99.89
2022-10-11T09:45:49.217Z,98.33
2022-10-11T09:50:39.330Z,95.81
2022-10-11T09:55:50.862Z,94.23
2022-10-11T10:00:43.019Z,94.26
2022-10-11T10:05:38.744Z,100.00
2022-10-11T10:10:31.747Z,89.06
2022-10-11T10:15:24.602Z,89.84
2022-10-11T10:20:22.884Z,89.00
2022-10-11T10:25:25.025Z,82.47
2022-10-11T10:30:18.247Z,80.88
2022-10-11T10:35:12.064Z,82.72
2022-10-11T10:40:05.563Z,90.16
2022-10-11T10:44:59.454Z,79.80
2022-10-11T10:49:55.394Z,80.30
2022-10-11T10:54:50.660Z,77.48
2022-10-11T10:59:50.387Z,81.48
2022-10-11T11:04:40.612Z,78.83
2022-10-11T11:09:37.164Z,77.95
2022-10-11T11:14:33.473Z,80.90
2022-10-11T11:19:35.867Z,76.38
2022-10-11T11:24:36.372Z,71.80
2022-10-11T11:29:36.547Z,75.96
2022-10-11T11:34:28.652Z,80.61
2022-10-11T11:39:23.736Z,82.65
2022-10-11T11:44:15.116Z,84.74
2022-10-11T11:49:12.144Z,85.61
2022-10-11T11:54:09.442Z,87.67
2022-10-11T11:59:06.948Z,87.97
2022-10-11T12:03:57.978Z,87.03
2022-10-11T12:08:49.036Z,87.18
2022-10-11T12:13:39.779Z,88.20
2022-10-11T12:18:39.254Z,86.86
2022-10-11T12:23:42.618Z,83.65
2022-10-11T12:28:50.339Z,84.73
2022-10-11T12:33:55.688Z,86.43
2022-10-11T12:38:47.291Z,81.65
2022-10-11T12:43:39.061Z,81.81
2022-10-11T12:48:41.056Z,76.72
2022-10-11T12:54:14.361Z,79.21
2022-10-11T12:59:04.447Z,77.71
2022-10-11T13:04:00.568Z,81.59
2022-10-11T13:08:56.558Z,79.40
2022-10-11T13:13:51.165Z,82.45
2022-10-11T13:18:44.767Z,83.65
2022-10-11T13:23:38.160Z,83.37
2022-10-11T13:28:35.585Z,85.42
2022-10-11T13:33:32.105Z,84.26
2022-10-11T13:38:25.732Z,83.94
2022-10-11T13:43:15.835Z,85.73
2022-10-11T13:48:16.359Z,87.90
2022-10-11T13:53:07.223Z,84.89
2022-10-11T13:57:57.698Z,83.86
2022-10-11T14:02:49.709Z,87.63
2022-10-11T14:07:41.937Z,87.97
2022-10-11T14:12:33.510Z,87.66
2022-10-11T14:17:26.160Z,88.66
2022-10-11T14:22:16.946Z,87.80
2022-10-11T14:27:20.466Z,88.45
2022-10-11T14:32:11.246Z,88.02
2022-10-11T14:37:00.816Z,87.59
2022-10-11T14:41:50.242Z,88.08
2022-10-11T14:46:42.809Z,88.73
2022-10-11T14:51:35.216Z,86.57
2022-10-11T14:56:24.733Z,89.06
2022-10-11T15:01:17.004Z,88.75
2022-10-11T15:06:09.843Z,88.02
2022-10-11T15:10:59.219Z,88.61
2022-10-11T15:15:48.580Z,88.42
2022-10-11T15:20:39.522Z,86.96
2022-10-11T15:25:32.376Z,84.77
2022-10-11T15:30:23.497Z,85.28
2022-10-11T15:35:12.986Z,86.83
2022-10-11T15:40:04.850Z,87.29
2022-10-11T15:44:56.989Z,86.68
2022-10-11T15:49:46.726Z,90.36
2022-10-11T15:54:36.548Z,88.01
2022-10-11T15:59:26.197Z,89.29
2022-10-11T16:04:18.205Z,90.87
2022-10-11T16:09:08.093Z,88.84
2022-10-11T16:13:57.595Z,90.64
2022-10-11T16:18:47.074Z,89.79
2022-10-11T16:23:39.207Z,90.00
2022-10-11T16:28:29.875Z,91.42
2022-10-11T16:33:19.258Z,91.67
2022-10-11T16:38:08.878Z,92.24
2022-10-11T16:43:07.930Z,93.35
2022-10-11T16:47:57.577Z,93.27
2022-10-11T16:52:47.088Z,94.14
2022-10-11T16:57:37.826Z,95.45
2022-10-11T17:02:32.619Z,95.71
2022-10-11T17:07:24.947Z,96.42
2022-10-11T17:12:15.877Z,96.66
2022-10-11T17:17:05.988Z,96.79
2022-10-11T17:21:58.126Z,97.40
2022-10-11T17:26:47.570Z,98.45
2022-10-11T17:31:38.577Z,100.00
2022-10-11T17:36:34.691Z,100.00
2022-10-11T17:41:32.231Z,100.00
2022-10-11T17:46:22.609Z,100.00
2022-10-11T17:51:12.697Z,100.00
2022-10-11T17:56:06.380Z,100.00
2022-10-11T18:00:58.407Z,100.00
2022-10-11T18:05:47.841Z,100.00
2022-10-11T18:10:38.297Z,100.00
2022-10-11T18:15:28.083Z,100.00
2022-10-11T18:20:20.230Z,100.00
2022-10-11T18:25:09.956Z,100.00
2022-10-11T18:29:59.395Z,100.00
2022-10-11T18:34:48.772Z,100.00
2022-10-11T18:39:40.757Z,100.00
2022-10-11T18:44:30.468Z,100.00
2022-10-11T18:49:20.028Z,100.00
2022-10-11T18:54:10.132Z,100.00
2022-10-11T18:59:02.217Z,100.00
2022-10-11T19:03:53.152Z,100.00
2022-10-11T19:08:42.563Z,100.00
2022-10-11T19:13:32.347Z,100.00
2022-10-11T19:18:25.590Z,100.00
2022-10-11T19:23:15.061Z,100.00
2022-10-11T19:28:04.969Z,100.00
2022-10-11T19:32:54.436Z,100.00
2022-10-11T19:37:46.466Z,100.00
2022-10-11T19:42:36.967Z,100.00
2022-10-11T19:47:29.074Z,100.00
2022-10-11T19:52:20.677Z,100.00
2022-10-11T19:57:16.133Z,100.00
2022-10-11T20:02:05.493Z,100.00
2022-10-11T20:06:54.881Z,100.00
2022-10-11T20:11:44.292Z,100.00
2022-10-11T20:16:38.317Z,100.00
2022-10-11T20:21:29.620Z,100.00
2022-10-11T20:26:21.080Z,100.00
2022-10-11T20:31:14.159Z,100.00
2022-10-11T20:36:07.090Z,100.00
2022-10-11T20:40:56.499Z,100.00
2022-10-11T20:45:47.918Z,100.00
2022-10-11T20:50:37.402Z,100.00
2022-10-11T20:55:29.415Z,100.00
2022-10-11T21:00:19.009Z,100.00
2022-10-11T21:05:11.945Z,100.00
2022-10-11T21:10:01.391Z,100.00
2022-10-11T21:14:53.415Z,100.00
2022-10-11T21:19:42.781Z,100.00
2022-10-11T21:24:32.396Z,100.00
2022-10-11T21:29:22.112Z,100.00
2022-10-11T21:34:14.131Z,100.00
2022-10-11T21:39:03.772Z,100.00
2022-10-11T21:43:53.181Z,100.00
2022-10-11T21:48:42.800Z,100.00
2022-10-11T21:53:35.186Z,100.00
2022-10-11T21:58:24.576Z,100.00
2022-10-11T22:03:14.055Z,100.00
2022-10-11T22:08:03.587Z,100.00
2022-10-11T22:12:55.949Z,100.00
2022-10-11T22:17:46.669Z,100.00
2022-10-11T22:22:36.431Z,100.00
2022-10-11T22:27:26.096Z,100.00
2022-10-11T22:32:18.124Z,100.00
2022-10-11T22:37:07.550Z,100.00
2022-10-11T22:41:57.143Z,100.00
2022-10-11T22:46:47.142Z,100.00
2022-10-11T22:51:39.227Z,100.00
2022-10-11T22:56:28.698Z,100.00
2022-10-11T23:01:18.724Z,100.00
2022-10-11T23:06:09.314Z,100.00
2022-10-11T23:11:04.645Z,100.00
2022-10-11T23:15:54.150Z,100.00
2022-10-11T23:20:43.534Z,100.00
2022-10-11T23:25:32.920Z,100.00
2022-10-11T23:30:25.014Z,100.00
2022-10-11T23:35:14.416Z,100.00
2022-10-11T23:40:06.575Z,100.00
2022-10-11T23:44:55.933Z,100.00
2022-10-11T23:49:48.015Z,100.00
2022-10-11T23:54:37.391Z,100.00
2022-10-11T23:59:26.803Z,100.00
